This is the latest recevied weather packets stored in our database for station/object KI5MKI. If no packets are shown the sender has not sent any weather packets the latest 1 day(s).
| Time | Temp. | Humidity | Pressure | Rain* | Wind** | Luminosity | Snow |
|---|---|---|---|---|---|---|---|
| 1778028066 | 26.11° C | 75% | 1005.6 hPa | 0 mm | - | 11 W/m² | - |
| 1778027459 | 26.11° C | 75% | 1005.7 hPa | 0 mm | - | 12 W/m² | - |
| 1778026851 | 26.11° C | 74% | 1005.6 hPa | 0 mm | - | 14 W/m² | - |
| 1778026547 | 26.11° C | 74% | 1005.7 hPa | 0 mm | - | 16 W/m² | - |
| 1778025034 | 26.67° C | 72% | 1005.5 hPa | 0 mm | - | 61 W/m² | - |
| 1778024731 | 26.67° C | 73% | 1005.3 hPa | 0 mm | - | 61 W/m² | - |
| 1778022310 | 27.22° C | 70% | 1005.3 hPa | 0 mm | - | 131 W/m² | - |
| 1778019883 | 28.33° C | 68% | 1005.1 hPa | 0 mm | - | 460 W/m² | - |
| 1778018066 | 28.89° C | 66% | 1005.5 hPa | 0 mm | - | 258 W/m² | - |
| 1778016856 | 27.78° C | 68% | 1005.1 hPa | 0 mm | - | 526 W/m² | - |
| 1778016552 | 27.78° C | 69% | 1005.4 hPa | 0 mm | - | 462 W/m² | - |
| 1778015339 | 27.78° C | 68% | 1005.6 hPa | 0 mm | - | 220 W/m² | - |
| 1778012006 | 27.78° C | 68% | 1005.8 hPa | 0 mm | - | 441 W/m² | - |
| 1778011704 | 27.78° C | 70% | 1005.8 hPa | 0 mm | - | 814 W/m² | - |
| 1778010794 | 27.78° C | 70% | 1005.7 hPa | 0 mm | - | 440 W/m² | - |
| 1778010188 | 27.22° C | 69% | 1005.8 hPa | 0 mm | - | 834 W/m² | - |
| 1778009883 | 27.78° C | 70% | 1006 hPa | 0 mm | - | 696 W/m² | - |
| 1778009581 | 27.22° C | 70% | 1005.8 hPa | 0 mm | - | 573 W/m² | - |
| 1778009279 | 26.67° C | 70% | 1005.9 hPa | 0 mm | - | 487 W/m² | - |
| 1778008674 | 26.67° C | 70% | 1005.9 hPa | 0 mm | - | 749 W/m² | - |
| 1778008068 | 26.11° C | 71% | 1006 hPa | 0 mm | - | 440 W/m² | - |
* Rain latest hour (hover to see other rain measurements)
** Current wind speed in m/s (hover to see current wind gust speed)